CheckWX is a tool to help pilots better visualize weather data.  It is not intended as a substitute for an official pre-flight weather briefing.

14:44:11 UTC

ESTA METAR
Ängelholm-Helsingborg Airport
Ängelholm, Sweden
Current

24 mins ago

ESTA 201420Z 10003KT 9999 SCT024 20/14 Q1007
Observed
May-20 @ 14:20 UTC
Wind
  • 100° at 3 KTS
Visibility
10,000+ meters
Flight Rules
VFR
Cloud Levels
  • Scattered at 2,400' AGL
Temperature
20°C / 68°F
Dewpoint
14°C / 57°F
Humidity
69%
Altimeter
29.73" Hg
Pressure
1006.92 hPa
Previous

54 mins ago

ESTA 201350Z 14004KT 9999 SCT023 20/15 Q1008
Observed
May-20 @ 13:50 UTC
Wind
  • 140° at 4 KTS
Visibility
10,000+ meters
Flight Rules
VFR
Cloud Levels
  • Scattered at 2,300' AGL
Temperature
20°C / 68°F
Dewpoint
15°C / 59°F
Humidity
73%
Altimeter
29.76" Hg
Pressure
1007.92 hPa
Previous

1 hour ago

ESTA 201320Z 11005KT 080V150 9999 SCT022 20/14 Q1007
Observed
May-20 @ 13:20 UTC
Wind
  • 110° at 5 KTS
Visibility
10,000+ meters
Flight Rules
VFR
Cloud Levels
  • Scattered at 2,200' AGL
Temperature
20°C / 68°F
Dewpoint
14°C / 57°F
Humidity
69%
Altimeter
29.73" Hg
Pressure
1006.92 hPa